Time;durP1;ratioP1;P1;durP2;ratioP2;P2;SDS_P1;SDS_P2;PMS_P1;PMS_P2;Temp;Humidity;BMP_temperature;BMP_pressure;BME280_temperature;BME280_humidity;BME280_pressure;Samples;Min_cycle;Max_cycle;Signal;HPM_P1;HPM_P2
2022/03/29 00:02:03;;;;;;;17.55;11.18;;;;;;;;;;5096427;28;20549;-61
2022/03/29 00:04:28;;;;;;;17.95;12.63;;;7.50;99.90;;;;;;5095749;28;20036;-61
2022/03/29 00:06:54;;;;;;;19.27;12.40;;;7.60;99.90;;;;;;5095341;28;20554;-61
2022/03/29 00:09:20;;;;;;;18.73;13.20;;;7.70;99.90;;;;;;5094442;28;20040;-61
2022/03/29 00:11:47;;;;;;;23.50;14.95;;;7.60;99.90;;;;;;5095942;28;20047;-61
2022/03/29 00:14:13;;;;;;;19.75;14.85;;;7.50;99.90;;;;;;5077320;28;20048;-61
2022/03/29 00:16:39;;;;;;;21.17;14.25;;;7.60;99.90;;;;;;5095506;28;20067;-61
2022/03/29 00:19:05;;;;;;;22.27;14.93;;;7.50;99.90;;;;;;5094423;28;20120;-61
2022/03/29 00:21:31;;;;;;;18.77;14.32;;;7.60;99.90;;;;;;5095442;28;20067;-61
2022/03/29 00:23:57;;;;;;;25.83;15.18;;;7.50;99.90;;;;;;5094386;28;20047;-61
2022/03/29 00:26:23;;;;;;;19.83;14.73;;;;;;;;;;5094332;28;20051;-61
2022/03/29 00:28:48;;;;;;;21.10;15.05;;;7.40;99.90;;;;;;5095495;28;20493;-61
2022/03/29 00:31:19;;;;;;;22.38;14.73;;;7.40;99.90;;;;;;5095335;28;20040;-61
2022/03/29 00:33:49;;;;;;;21.42;14.00;;;7.50;99.90;;;;;;5095061;28;20040;-61
2022/03/29 00:36:16;;;;;;;20.38;13.68;;;7.40;99.90;;;;;;5094125;28;20036;-61
2022/03/29 00:38:42;;;;;;;19.35;13.60;;;7.30;99.90;;;;;;5094062;28;20528;-61
2022/03/29 00:41:08;;;;;;;21.60;14.52;;;7.50;99.90;;;;;;5093844;28;20043;-61
2022/03/29 00:43:35;;;;;;;23.83;15.18;;;;;;;;;;5095393;28;20119;-61
2022/03/29 00:46:01;;;;;;;22.33;13.80;;;;;;;;;;5111281;28;20405;-61
2022/03/29 00:48:27;;;;;;;21.92;14.57;;;7.10;99.90;;;;;;5114603;28;20050;-61
2022/03/29 00:50:54;;;;;;;23.73;13.73;;;7.10;99.90;;;;;;5115465;28;20087;-61
2022/03/29 00:53:22;;;;;;;22.73;15.38;;;7.20;99.90;;;;;;5114112;28;20055;-61
2022/03/29 00:55:48;;;;;;;21.00;14.98;;;7.20;99.90;;;;;;5115242;28;20043;-61
2022/03/29 00:58:15;;;;;;;23.30;14.90;;;7.20;99.90;;;;;;5114216;28;20071;-61
2022/03/29 01:00:41;;;;;;;25.80;14.85;;;7.40;99.90;;;;;;5096837;28;20119;-61
2022/03/29 01:03:06;;;;;;;22.40;15.02;;;7.20;99.90;;;;;;5113872;28;20111;-62
2022/03/29 01:05:32;;;;;;;22.88;15.05;;;7.30;99.90;;;;;;5113281;28;20131;-61
2022/03/29 01:07:59;;;;;;;22.15;14.57;;;7.20;99.90;;;;;;5115040;28;20054;-61
2022/03/29 01:10:25;;;;;;;26.13;15.75;;;7.30;99.90;;;;;;5113786;28;20394;-61
2022/03/29 01:12:51;;;;;;;23.92;16.05;;;;;;;;;;5113888;28;20032;-61
2022/03/29 01:15:19;;;;;;;26.92;16.20;;;7.10;99.90;;;;;;5114632;28;20553;-61
2022/03/29 01:17:46;;;;;;;21.95;16.25;;;7.10;99.90;;;;;;5114884;28;20418;-61
2022/03/29 01:20:17;;;;;;;26.05;15.88;;;7.10;99.90;;;;;;5112679;28;20044;-61
2022/03/29 01:22:48;;;;;;;28.63;16.35;;;7.20;99.90;;;;;;5094124;28;20039;-61
2022/03/29 01:25:25;;;;;;;26.80;18.15;;;7.20;99.90;;;;;;5076894;28;20504;-61
2022/03/29 01:27:53;;;;;;;26.73;16.30;;;7.10;99.90;;;;;;5092893;28;20533;-61
2022/03/29 01:30:20;;;;;;;27.63;16.30;;;7.10;99.90;;;;;;5092923;28;20481;-61
2022/03/29 01:32:48;;;;;;;30.63;17.30;;;7.10;99.90;;;;;;5094034;28;20482;-61
2022/03/29 01:35:16;;;;;;;27.42;17.73;;;7.20;99.90;;;;;;5092816;28;20040;-61
2022/03/29 01:37:42;;;;;;;26.83;17.00;;;7.20;99.90;;;;;;5094252;28;20040;-60
2022/03/29 01:40:08;;;;;;;27.23;16.00;;;;;;;;;;5075927;28;20498;-60
2022/03/29 01:42:34;;;;;;;27.23;17.33;;;7.20;99.90;;;;;;5092642;28;20072;-60
2022/03/29 01:45:00;;;;;;;31.33;17.70;;;7.20;99.90;;;;;;5101899;28;20035;-60
2022/03/29 01:47:26;;;;;;;28.85;17.67;;;7.30;99.90;;;;;;5114365;28;20040;-61
2022/03/29 01:49:52;;;;;;;27.42;17.60;;;;;;;;;;5096013;28;20038;-60
2022/03/29 01:52:19;;;;;;;24.90;16.35;;;7.30;99.90;;;;;;5114313;28;20032;-60
2022/03/29 01:54:45;;;;;;;26.13;16.50;;;7.40;99.90;;;;;;5114038;28;20047;-61
2022/03/29 01:57:11;;;;;;;24.75;16.33;;;7.30;99.90;;;;;;5113011;28;20393;-60
2022/03/29 02:02:22;;;;;;;26.48;17.63;;;;;;;;;;5114315;28;20118;-60
2022/03/29 02:04:48;;;;;;;30.83;17.20;;;;;;;;;;5112771;28;20043;-61
2022/03/29 02:07:14;;;;;;;26.77;17.20;;;;;;;;;;5113027;28;20046;-61
2022/03/29 02:09:40;;;;;;;26.92;16.42;;;7.30;99.90;;;;;;5113028;28;20127;-61
2022/03/29 02:12:06;;;;;;;29.83;17.30;;;;;;;;;;5095728;28;20124;-61
2022/03/29 02:14:34;;;;;;;28.30;17.63;;;7.30;99.90;;;;;;5113840;28;20508;-60
2022/03/29 02:17:00;;;;;;;26.10;16.70;;;7.20;99.90;;;;;;5112335;28;20478;-61
2022/03/29 02:19:26;;;;;;;25.58;17.35;;;7.30;99.90;;;;;;5112644;28;20114;-61
2022/03/29 02:21:52;;;;;;;25.80;16.73;;;;;;;;;;5112658;28;20216;-61
2022/03/29 02:24:17;;;;;;;30.13;16.67;;;7.40;99.90;;;;;;5112631;28;20032;-61
2022/03/29 02:26:43;;;;;;;28.20;17.70;;;7.30;99.90;;;;;;5112415;28;20051;-61
2022/03/29 02:29:10;;;;;;;24.65;16.02;;;;;;;;;;5113822;28;20496;-61
2022/03/29 02:31:36;;;;;;;27.70;16.85;;;;;;;;;;5113876;28;20089;-61
2022/03/29 02:34:02;;;;;;;27.80;17.23;;;;;;;;;;5113903;28;20107;-60
2022/03/29 02:36:28;;;;;;;27.92;16.38;;;7.30;99.90;;;;;;5113585;28;20040;-61
2022/03/29 02:38:54;;;;;;;26.15;16.80;;;;;;;;;;5112917;28;20093;-61
2022/03/29 02:41:20;;;;;;;25.63;15.85;;;7.40;99.90;;;;;;5112594;28;20122;-61
2022/03/29 02:43:45;;;;;;;26.00;16.73;;;7.50;99.90;;;;;;5113570;28;20127;-61
2022/03/29 02:46:11;;;;;;;25.55;16.73;;;7.60;99.90;;;;;;5113726;28;20032;-61
2022/03/29 02:48:37;;;;;;;27.10;17.90;;;;;;;;;;5113593;28;20085;-61
2022/03/29 02:51:03;;;;;;;23.35;15.70;;;7.40;99.90;;;;;;5113371;28;20039;-61
2022/03/29 02:53:28;;;;;;;28.42;17.80;;;7.40;99.90;;;;;;5113306;28;20493;-61
2022/03/29 02:55:54;;;;;;;28.98;17.10;;;7.40;99.90;;;;;;5112023;28;20060;-60
2022/03/29 02:58:19;;;;;;;27.83;16.88;;;7.40;99.90;;;;;;5113579;28;20064;-58
2022/03/29 03:00:45;;;;;;;23.85;16.25;;;7.50;99.90;;;;;;5112217;28;20445;-59
2022/03/29 03:03:11;;;;;;;29.13;17.50;;;;;;;;;;5112109;28;20389;-59
2022/03/29 03:05:37;;;;;;;28.65;18.45;;;7.50;99.90;;;;;;5113613;28;20134;-59
2022/03/29 03:08:03;;;;;;;29.88;17.60;;;7.50;99.90;;;;;;5113542;28;20040;-59
2022/03/29 03:10:30;;;;;;;25.67;16.85;;;;;;;;;;5113753;28;20451;-59
2022/03/29 03:12:55;;;;;;;28.85;17.60;;;7.40;99.90;;;;;;5112223;28;20123;-59
2022/03/29 03:15:23;;;;;;;28.50;17.05;;;7.40;99.90;;;;;;5112144;28;20126;-58
2022/03/29 03:17:53;;;;;;;31.02;17.83;;;7.40;99.90;;;;;;5112183;28;20489;-60
2022/03/29 03:20:20;;;;;;;29.85;17.25;;;7.50;99.90;;;;;;5112294;28;20032;-59
2022/03/29 03:22:46;;;;;;;30.77;18.33;;;7.50;99.90;;;;;;5095299;28;20038;-59
2022/03/29 03:25:11;;;;;;;32.33;18.30;;;7.40;99.90;;;;;;5112177;28;20048;-59
2022/03/29 03:27:40;;;;;;;30.45;16.83;;;7.50;99.90;;;;;;5112396;28;20051;-59
2022/03/29 03:30:08;;;;;;;32.47;18.38;;;7.30;99.90;;;;;;5114566;28;20057;-59
2022/03/29 03:32:34;;;;;;;26.02;17.67;;;;;;;;;;5115734;28;20044;-58
2022/03/29 03:35:00;;;;;;;32.83;19.05;;;7.50;99.90;;;;;;5115825;28;20435;-59
2022/03/29 03:37:26;;;;;;;32.30;18.05;;;7.40;99.90;;;;;;5116997;28;20032;-58
2022/03/29 03:39:52;;;;;;;34.10;18.63;;;7.50;99.90;;;;;;5115832;28;20084;-59
2022/03/29 03:42:18;;;;;;;30.20;18.90;;;7.40;99.90;;;;;;5115195;28;20035;-59
2022/03/29 03:44:44;;;;;;;32.25;20.10;;;7.50;99.90;;;;;;5115352;28;20385;-59
2022/03/29 03:47:10;;;;;;;29.85;17.48;;;7.40;99.90;;;;;;5115462;28;20066;-59
2022/03/29 03:49:36;;;;;;;32.80;18.98;;;7.50;99.90;;;;;;5115242;28;20051;-60
2022/03/29 03:52:03;;;;;;;34.33;18.30;;;7.40;99.90;;;;;;5116679;28;20047;-59
2022/03/29 03:54:29;;;;;;;28.65;18.10;;;7.30;99.90;;;;;;5116448;28;20058;-59
2022/03/29 03:56:54;;;;;;;29.02;18.35;;;7.50;99.90;;;;;;5115237;28;20031;-58
2022/03/29 03:59:21;;;;;;;30.33;18.23;;;7.40;99.90;;;;;;5098282;28;20035;-59
2022/03/29 04:01:47;;;;;;;29.63;18.75;;;;;;;;;;5115092;28;20162;-60
2022/03/29 04:04:13;;;;;;;33.58;18.63;;;;;;;;;;5114881;28;20069;-60
2022/03/29 04:06:38;;;;;;;30.92;18.83;;;7.40;99.90;;;;;;5115309;28;20092;-59
2022/03/29 04:09:04;;;;;;;31.83;18.85;;;7.20;99.90;;;;;;5098442;28;20047;-58
2022/03/29 04:11:30;;;;;;;31.85;19.63;;;7.30;99.90;;;;;;5098125;28;20053;-58
2022/03/29 04:13:57;;;;;;;29.38;18.80;;;7.70;99.90;;;;;;5114864;28;20043;-58
2022/03/29 04:16:23;;;;;;;32.25;18.17;;;;;;;;;;5114862;28;20127;-60
2022/03/29 04:18:48;;;;;;;28.00;18.60;;;7.40;99.90;;;;;;5114956;28;20579;-59
2022/03/29 04:21:14;;;;;;;29.27;18.95;;;7.40;99.90;;;;;;5097640;28;20054;-59
2022/03/29 04:23:39;;;;;;;28.10;17.98;;;7.50;99.90;;;;;;5114756;28;20070;-58
2022/03/29 04:26:05;;;;;;;28.67;17.98;;;7.40;99.90;;;;;;5116259;28;20082;-60
2022/03/29 04:28:32;;;;;;;29.17;18.35;;;;;;;;;;5116233;28;20036;-59
2022/03/29 04:30:59;;;;;;;28.85;18.42;;;7.50;99.90;;;;;;5089237;28;20078;-61
2022/03/29 04:33:28;;;;;;;28.48;16.98;;;7.50;99.90;;;;;;5103459;28;20040;-61
2022/03/29 04:35:55;;;;;;;33.22;18.95;;;7.50;99.90;;;;;;5102217;28;20125;-62
2022/03/29 04:38:23;;;;;;;28.85;17.80;;;7.50;99.90;;;;;;5095390;28;20474;-61
2022/03/29 04:40:49;;;;;;;27.00;15.95;;;7.50;99.90;;;;;;5095014;28;20088;-61
2022/03/29 04:43:14;;;;;;;27.45;16.80;;;7.50;99.90;;;;;;5095412;28;20050;-61
2022/03/29 04:45:41;;;;;;;31.17;17.92;;;7.40;99.90;;;;;;5107939;28;20047;-62
2022/03/29 04:48:06;;;;;;;31.98;19.10;;;7.40;99.90;;;;;;5097360;28;20043;-61
2022/03/29 04:50:32;;;;;;;30.60;18.88;;;7.40;99.90;;;;;;5115775;28;20047;-61
2022/03/29 04:52:58;;;;;;;28.63;17.75;;;7.50;99.90;;;;;;5115106;28;20055;-62
2022/03/29 04:55:24;;;;;;;37.50;18.48;;;7.50;99.90;;;;;;5115150;28;20054;-61
2022/03/29 04:57:50;;;;;;;31.90;17.20;;;7.40;99.90;;;;;;5096947;28;20047;-62
2022/03/29 05:00:20;;;;;;;28.55;17.60;;;7.40;99.90;;;;;;5097470;28;20036;-62
2022/03/29 05:02:46;;;;;;;31.30;18.67;;;7.40;99.90;;;;;;5095533;28;20055;-62
2022/03/29 05:05:13;;;;;;;27.38;17.10;;;7.50;99.90;;;;;;5095301;28;20079;-62
2022/03/29 05:07:42;;;;;;;31.30;18.90;;;7.40;99.90;;;;;;5092951;28;20044;-60
2022/03/29 05:10:09;;;;;;;30.35;18.75;;;7.40;99.90;;;;;;5110261;28;20120;-60
2022/03/29 05:12:46;;;;;;;31.50;18.00;;;7.30;99.90;;;;;;5100230;28;20055;-60
2022/03/29 05:15:13;;;;;;;29.42;17.73;;;7.50;99.90;;;;;;5092628;28;20608;-60
2022/03/29 05:17:39;;;;;;;28.92;17.58;;;7.40;99.90;;;;;;5099769;28;20044;-62
2022/03/29 05:20:06;;;;;;;28.92;18.35;;;7.40;99.90;;;;;;5093872;28;20548;-62
2022/03/29 05:22:39;;;;;;;31.52;17.65;;;7.60;99.90;;;;;;5093136;28;20040;-62
2022/03/29 05:25:05;;;;;;;34.53;18.75;;;7.50;99.90;;;;;;5094484;28;20074;-62
2022/03/29 05:27:31;;;;;;;30.38;18.10;;;7.40;99.90;;;;;;5093215;28;20090;-58
2022/03/29 05:29:56;;;;;;;35.13;18.55;;;7.40;99.90;;;;;;5076334;28;20071;-60
2022/03/29 05:32:22;;;;;;;35.33;18.63;;;7.40;99.90;;;;;;5094332;28;20048;-58
2022/03/29 05:34:48;;;;;;;30.88;17.42;;;7.30;99.90;;;;;;5094067;28;20044;-59
2022/03/29 05:37:14;;;;;;;30.92;18.95;;;7.50;99.90;;;;;;5092970;28;20040;-59
2022/03/29 05:39:40;;;;;;;34.72;18.88;;;7.50;99.90;;;;;;5094130;28;20036;-61
2022/03/29 05:42:06;;;;;;;31.40;18.13;;;7.40;99.90;;;;;;5094076;28;20093;-61
2022/03/29 05:44:32;;;;;;;32.17;19.00;;;7.50;99.90;;;;;;5099047;28;20412;-61
2022/03/29 05:49:41;;;;;;;33.72;18.20;;;7.40;99.90;;;;;;5113843;28;20040;-62
2022/03/29 05:52:07;;;;;;;33.45;19.13;;;7.60;99.90;;;;;;5113431;28;20039;-62
2022/03/29 05:54:33;;;;;;;33.88;18.52;;;7.40;99.90;;;;;;5113806;28;20412;-61
2022/03/29 05:56:58;;;;;;;33.78;19.30;;;7.40;99.90;;;;;;5098037;28;20097;-58
2022/03/29 05:59:24;;;;;;;31.13;18.42;;;;;;;;;;5092493;28;20043;-62
2022/03/29 06:01:50;;;;;;;30.67;19.42;;;7.40;99.90;;;;;;5093630;28;20119;-58
2022/03/29 06:04:17;;;;;;;36.22;19.55;;;7.40;99.90;;;;;;5093719;28;20115;-61
2022/03/29 06:06:44;;;;;;;34.40;20.45;;;7.40;99.90;;;;;;5093566;28;20101;-61
2022/03/29 06:09:10;;;;;;;41.33;19.80;;;;;;;;;;5092267;28;20044;-61
2022/03/29 06:11:37;;;;;;;31.80;18.67;;;7.60;99.90;;;;;;5101261;28;20047;-61
2022/03/29 06:14:03;;;;;;;31.17;18.10;;;;;;;;;;5111171;28;20055;-62
2022/03/29 06:16:28;;;;;;;31.63;18.25;;;7.70;99.90;;;;;;5112675;28;20043;-62
2022/03/29 06:18:54;;;;;;;30.27;18.08;;;7.50;99.90;;;;;;5113351;28;20062;-62
2022/03/29 06:21:21;;;;;;;34.75;18.77;;;7.60;99.90;;;;;;5107397;28;20036;-63
2022/03/29 06:23:47;;;;;;;30.73;18.13;;;7.70;99.90;;;;;;5091471;28;20044;-62
2022/03/29 06:26:13;;;;;;;31.50;19.85;;;;;;;;;;5092778;28;20044;-63
2022/03/29 06:28:38;;;;;;;32.58;18.85;;;7.50;99.90;;;;;;5095045;28;20042;-61
2022/03/29 06:31:04;;;;;;;40.53;20.85;;;7.60;99.90;;;;;;5112595;28;20040;-61
2022/03/29 06:33:30;;;;;;;32.80;19.42;;;7.60;99.90;;;;;;5094583;28;20070;-61
2022/03/29 06:35:55;;;;;;;34.22;18.48;;;7.50;99.90;;;;;;5112404;28;20036;-61
2022/03/29 06:38:22;;;;;;;36.80;19.70;;;7.50;99.90;;;;;;5112728;28;20101;-61
2022/03/29 06:40:48;;;;;;;38.20;19.48;;;7.50;99.90;;;;;;5112706;28;20047;-62
2022/03/29 06:43:14;;;;;;;31.35;19.08;;;7.50;99.90;;;;;;5112803;28;20564;-61
2022/03/29 06:45:40;;;;;;;33.72;18.42;;;7.70;99.90;;;;;;5112347;28;20089;-61
2022/03/29 06:48:10;;;;;;;34.65;19.30;;;7.60;99.90;;;;;;5111137;28;20043;-61
2022/03/29 06:50:38;;;;;;;38.92;19.45;;;7.60;99.90;;;;;;5094399;28;20050;-61
2022/03/29 06:53:25;;;;;;;39.55;20.77;;;;;;;;;;5111000;28;20048;-61
2022/03/29 06:55:51;;;;;;;38.55;20.10;;;7.60;99.90;;;;;;5110850;28;20087;-61
2022/03/29 06:58:18;;;;;;;30.65;18.17;;;7.60;99.90;;;;;;5077226;28;20521;-61
2022/03/29 07:00:44;;;;;;;33.97;19.77;;;7.80;99.90;;;;;;5090712;28;20351;-61
2022/03/29 07:03:10;;;;;;;33.78;19.98;;;7.90;99.90;;;;;;5094687;28;20038;-62
2022/03/29 07:05:38;;;;;;;36.25;19.73;;;7.60;99.90;;;;;;5116180;27;20036;-62
2022/03/29 07:08:05;;;;;;;38.30;20.23;;;7.70;99.90;;;;;;5107977;28;20047;-62
2022/03/29 07:13:16;;;;;;;38.70;19.67;;;7.80;99.90;;;;;;5095797;28;20047;-62
2022/03/29 07:15:42;;;;;;;35.67;20.52;;;;;;;;;;5095549;28;20040;-61
2022/03/29 07:18:08;;;;;;;42.67;21.55;;;7.90;99.90;;;;;;5095907;28;20054;-61
2022/03/29 07:20:34;;;;;;;41.80;20.58;;;8.00;99.90;;;;;;5105451;28;20040;-62
2022/03/29 07:23:00;;;;;;;38.42;20.85;;;;;;;;;;5097651;28;20024;-62
2022/03/29 07:25:31;;;;;;;41.00;19.55;;;7.80;99.90;;;;;;5097874;28;20044;-62
2022/03/29 07:27:57;;;;;;;35.88;19.70;;;;;;;;;;5097911;28;20490;-62
2022/03/29 07:30:24;;;;;;;38.38;19.90;;;8.10;99.90;;;;;;5096266;28;20402;-62
2022/03/29 07:32:54;;;;;;;39.88;21.10;;;;;;;;;;5094166;28;20062;-62
2022/03/29 07:35:21;;;;;;;36.67;19.48;;;8.30;99.90;;;;;;5096297;28;20476;-62
2022/03/29 07:37:47;;;;;;;37.10;19.80;;;8.30;99.90;;;;;;5093766;28;20481;-63
2022/03/29 07:40:14;;;;;;;35.47;20.05;;;;;;;;;;5110628;28;20032;-63
2022/03/29 07:42:40;;;;;;;40.95;20.77;;;;;;;;;;5094458;28;20031;-63
2022/03/29 07:45:07;;;;;;;46.78;22.45;;;;;;;;;;5094893;28;20044;-63
2022/03/29 07:47:36;;;;;;;40.83;19.65;;;8.60;99.90;;;;;;5093121;28;20051;-63
2022/03/29 07:50:06;;;;;;;38.88;20.73;;;;;;;;;;5096671;28;20122;-64
2022/03/29 07:52:32;;;;;;;31.65;19.27;;;;;;;;;;5094304;28;20047;-66
2022/03/29 07:54:58;;;;;;;42.35;22.13;;;8.60;99.90;;;;;;5109625;28;20426;-65
2022/03/29 07:57:25;;;;;;;34.70;19.05;;;;;;;;;;5099932;28;20047;-65
2022/03/29 07:59:50;;;;;;;35.92;20.17;;;8.80;99.90;;;;;;5094779;28;20044;-65
2022/03/29 08:02:16;;;;;;;36.25;20.17;;;8.80;99.90;;;;;;5100358;28;20387;-66
2022/03/29 08:04:41;;;;;;;40.83;20.65;;;8.80;99.90;;;;;;5096713;28;20055;-66
2022/03/29 08:07:08;;;;;;;33.05;19.30;;;;;;;;;;5098011;28;20470;-65
2022/03/29 08:09:34;;;;;;;41.28;20.90;;;8.60;99.90;;;;;;5103460;28;20036;-63
2022/03/29 08:12:00;;;;;;;45.28;20.35;;;8.90;99.90;;;;;;5095148;28;20035;-64
2022/03/29 08:14:26;;;;;;;38.63;19.08;;;8.90;99.90;;;;;;5093440;28;20040;-64
2022/03/29 08:16:56;;;;;;;34.80;19.35;;;;;;;;;;5093601;28;20040;-63
2022/03/29 08:19:22;;;;;;;40.72;19.67;;;9.00;99.90;;;;;;5092617;28;20119;-65
2022/03/29 08:21:49;;;;;;;42.63;19.23;;;9.00;99.90;;;;;;5103936;28;20038;-63
2022/03/29 08:24:15;;;;;;;39.85;20.55;;;9.10;99.90;;;;;;5095542;28;20040;-64
2022/03/29 08:26:41;;;;;;;38.28;18.80;;;8.90;99.90;;;;;;5098131;28;20036;-65
2022/03/29 08:29:08;;;;;;;42.38;19.23;;;9.00;99.90;;;;;;5093001;28;20391;-65
2022/03/29 08:31:34;;;;;;;40.38;20.80;;;9.00;99.90;;;;;;5096123;28;20097;-65
2022/03/29 08:33:59;;;;;;;31.40;18.50;;;8.90;99.90;;;;;;5100254;28;20437;-65
2022/03/29 08:36:25;;;;;;;38.83;19.55;;;;;;;;;;5105520;28;20438;-62
2022/03/29 08:38:51;;;;;;;40.70;19.77;;;8.90;99.90;;;;;;5096071;28;20485;-62
2022/03/29 08:41:18;;;;;;;37.50;19.42;;;8.90;99.90;;;;;;5095862;28;20081;-63
2022/03/29 08:43:43;;;;;;;35.22;19.83;;;9.00;99.90;;;;;;5094581;28;20024;-63
2022/03/29 08:46:09;;;;;;;38.30;19.55;;;9.00;99.90;;;;;;5093261;28;20089;-64
2022/03/29 08:48:35;;;;;;;35.97;19.52;;;9.00;99.90;;;;;;5094040;28;20096;-62
2022/03/29 08:51:01;;;;;;;36.08;20.02;;;8.90;99.90;;;;;;5112741;28;20046;-64
2022/03/29 08:53:28;;;;;;;34.83;19.25;;;9.00;99.90;;;;;;5094550;28;20087;-61
2022/03/29 08:55:54;;;;;;;36.33;20.05;;;9.00;99.90;;;;;;5093108;28;20051;-64
2022/03/29 08:58:22;;;;;;;40.75;19.85;;;9.00;99.90;;;;;;5092916;28;20542;-63
2022/03/29 09:00:49;;;;;;;41.85;21.55;;;9.10;99.90;;;;;;5092539;28;20036;-62
2022/03/29 09:03:15;;;;;;;40.05;18.70;;;;;;;;;;5095326;28;20028;-65
2022/03/29 09:05:41;;;;;;;35.70;20.85;;;9.30;99.90;;;;;;5091994;28;20075;-64
2022/03/29 09:08:09;;;;;;;38.95;20.38;;;9.20;99.90;;;;;;5094666;28;20077;-64
2022/03/29 09:10:38;;;;;;;39.33;19.10;;;9.30;99.90;;;;;;5087552;28;20071;-63
2022/03/29 09:13:33;;;;;;;37.08;18.70;;;9.40;99.90;;;;;;5097135;28;20074;-64
2022/03/29 09:16:01;;;;;;;42.40;19.20;;;9.40;99.90;;;;;;5097800;28;20056;-65
2022/03/29 09:18:28;;;;;;;37.25;18.55;;;9.60;99.90;;;;;;5111127;28;20043;-65
2022/03/29 09:21:13;;;;;;;43.85;20.73;;;9.60;99.90;;;;;;5107158;28;20083;-64
2022/03/29 09:23:41;;;;;;;34.67;19.60;;;9.70;99.90;;;;;;5092321;28;20081;-64
2022/03/29 09:26:06;;;;;;;36.05;20.38;;;9.70;99.90;;;;;;5087476;28;20032;-64
2022/03/29 09:28:34;;;;;;;40.05;19.98;;;9.70;99.90;;;;;;5107162;28;20032;-63
2022/03/29 09:31:00;;;;;;;44.90;20.27;;;9.80;99.90;;;;;;5091844;28;20043;-63
2022/03/29 09:33:34;;;;;;;38.92;20.58;;;9.80;99.90;;;;;;5092191;28;20032;-64
2022/03/29 09:36:07;;;;;;;34.38;19.25;;;9.90;99.90;;;;;;5105532;28;20080;-64
2022/03/29 09:38:42;;;;;;;41.60;19.15;;;9.90;99.90;;;;;;5094482;28;20553;-65
2022/03/29 09:41:20;;;;;;;36.33;18.52;;;9.90;99.90;;;;;;5074139;28;20046;-63
2022/03/29 09:44:02;;;;;;;38.08;19.25;;;10.00;99.90;;;;;;5091171;28;20087;-63
2022/03/29 09:46:28;;;;;;;37.38;19.85;;;9.90;99.90;;;;;;5095023;28;20043;-63
2022/03/29 09:49:02;;;;;;;37.08;18.83;;;9.80;99.90;;;;;;5092252;28;20032;-64
2022/03/29 09:51:28;;;;;;;34.35;18.58;;;9.90;99.90;;;;;;5094863;28;20486;-63
2022/03/29 09:53:59;;;;;;;36.92;19.35;;;10.20;99.90;;;;;;5090813;28;20044;-64
2022/03/29 09:56:29;;;;;;;32.65;17.52;;;10.20;99.90;;;;;;5092051;28;20048;-64
2022/03/29 09:59:14;;;;;;;34.22;17.73;;;10.30;99.90;;;;;;5094916;28;20101;-63
2022/03/29 10:01:47;;;;;;;;;;;10.20;99.90;;;;;;5106290;28;20039;-65
2022/03/29 10:04:15;;;;;;;39.53;17.33;;;10.20;99.90;;;;;;5111139;28;19923;-64
2022/03/29 10:06:42;;;;;;;41.17;18.88;;;10.30;99.90;;;;;;5094046;28;20046;-62
2022/03/29 10:09:27;;;;;;;36.30;18.13;;;10.20;99.90;;;;;;5094315;28;20389;-63
2022/03/29 10:12:08;;;;;;;34.38;17.80;;;;;;;;;;5102338;28;20093;-64
2022/03/29 10:14:36;;;;;;;44.80;19.75;;;10.20;99.90;;;;;;5111717;28;20084;-64
2022/03/29 10:17:04;;;;;;;40.78;18.60;;;11.70;99.90;;;;;;5095509;28;20051;-64
2022/03/29 10:19:30;;;;;;;33.28;19.20;;;10.40;99.90;;;;;;5092133;28;20040;-63
2022/03/29 10:21:58;;;;;;;36.40;21.27;;;10.70;99.90;;;;;;5090964;28;20127;-62
2022/03/29 10:24:24;;;;;;;33.92;18.05;;;10.80;99.90;;;;;;5091266;28;20048;-63
2022/03/29 10:26:51;;;;;;;40.30;19.05;;;10.70;99.90;;;;;;5092680;28;20048;-63
2022/03/29 10:29:17;;;;;;;36.65;18.20;;;10.70;99.90;;;;;;5092535;28;20036;-63
2022/03/29 10:31:52;;;;;;;30.25;16.77;;;11.00;99.90;;;;;;5091106;28;20063;-63
2022/03/29 10:34:30;;;;;;;30.50;17.50;;;11.10;99.90;;;;;;5090398;28;20044;-63
2022/03/29 10:37:08;;;;;;;28.67;16.88;;;11.20;99.90;;;;;;5093571;28;20501;-63
2022/03/29 10:39:57;;;;;;;34.78;17.58;;;11.80;99.90;;;;;;5093241;28;20449;-63
2022/03/29 10:42:36;;;;;;;33.55;17.98;;;12.20;99.90;;;;;;5097179;28;20046;-64
2022/03/29 10:45:18;;;;;;;35.85;18.35;;;12.70;99.90;;;;;;5102270;28;20043;-63
2022/03/29 10:47:59;;;;;;;31.67;17.52;;;12.70;99.90;;;;;;5094937;28;20083;-64
2022/03/29 10:50:43;;;;;;;34.40;18.73;;;13.00;99.90;;;;;;5095998;28;20036;-63
2022/03/29 10:53:26;;;;;;;33.92;17.77;;;12.80;99.90;;;;;;5094756;28;20048;-63
2022/03/29 10:56:10;;;;;;;28.30;16.13;;;13.20;99.90;;;;;;5077775;28;20452;-63
2022/03/29 10:58:56;;;;;;;30.60;17.65;;;13.40;99.90;;;;;;5094539;28;20462;-63
2022/03/29 11:01:22;;;;;;;;;;;13.30;99.90;;;;;;5095446;28;20454;-64
2022/03/29 11:04:07;;;;;;;27.38;15.20;;;13.60;99.90;;;;;;5096143;28;20106;-64
2022/03/29 11:06:33;;;;;;;30.02;16.60;;;13.90;99.90;;;;;;5114742;28;20078;-64
2022/03/29 11:09:17;;;;;;;27.85;16.80;;;14.10;99.90;;;;;;5116271;28;20050;-64
2022/03/29 11:11:50;;;;;;;31.67;15.80;;;14.00;99.90;;;;;;5111812;28;20246;-65
2022/03/29 11:14:33;;;;;;;32.50;17.38;;;14.00;99.90;;;;;;5113650;28;20138;-65
2022/03/29 11:17:08;;;;;;;29.83;16.25;;;14.30;99.90;;;;;;5112352;28;20393;-65
2022/03/29 11:19:47;;;;;;;28.90;16.48;;;13.20;99.90;;;;;;5113338;28;20515;-65
2022/03/29 11:22:23;;;;;;;33.00;16.52;;;14.40;99.90;;;;;;5113282;27;20401;-65
2022/03/29 11:24:49;;;;;;;29.95;14.52;;;14.20;99.90;;;;;;5112084;28;20073;-65
2022/03/29 11:27:31;;;;;;;26.08;15.32;;;14.10;99.90;;;;;;5111972;28;20054;-65
2022/03/29 11:29:57;;;;;;;27.00;15.90;;;14.90;99.90;;;;;;5113118;28;20110;-65
2022/03/29 11:32:23;;;;;;;27.63;15.55;;;14.00;99.90;;;;;;5111563;28;20083;-65
2022/03/29 11:34:55;;;;;;;31.50;16.17;;;14.10;99.90;;;;;;5111762;28;20075;-65
2022/03/29 11:37:32;;;;;;;30.52;15.52;;;14.10;99.90;;;;;;5111522;28;20047;-65
2022/03/29 11:40:00;;;;;;;29.05;15.70;;;13.50;99.90;;;;;;5113126;28;20039;-65
2022/03/29 11:42:47;;;;;;;31.55;16.05;;;13.80;99.90;;;;;;5112839;28;20075;-65
2022/03/29 11:45:14;;;;;;;27.73;15.43;;;13.80;99.90;;;;;;5111695;28;20039;-65
2022/03/29 11:47:50;;;;;;;34.90;16.35;;;13.80;99.90;;;;;;5111630;28;20571;-64
2022/03/29 11:50:30;;;;;;;30.60;15.98;;;13.80;99.90;;;;;;5111509;28;20087;-65
2022/03/29 11:52:56;;;;;;;30.67;16.27;;;;;;;;;;5110924;28;20059;-65
2022/03/29 11:55:22;;;;;;;27.83;15.45;;;;;;;;;;5112484;28;20039;-65
2022/03/29 11:57:48;;;;;;;26.48;13.85;;;;;;;;;;5112527;28;20044;-64
2022/03/29 12:00:25;;;;;;;28.25;14.10;;;14.10;99.90;;;;;;5112551;28;20504;-65
2022/03/29 12:02:52;;;;;;;36.97;14.20;;;13.90;99.90;;;;;;5111130;28;20039;-64
2022/03/29 12:05:22;;;;;;;25.05;14.05;;;13.90;99.90;;;;;;5111389;28;20485;-65
2022/03/29 12:07:48;;;;;;;26.00;13.15;;;;;;;;;;5112434;28;20044;-65
2022/03/29 12:10:29;;;;;;;29.35;14.15;;;13.90;99.90;;;;;;5112257;28;20606;-65
2022/03/29 12:12:55;;;;;;;30.52;12.95;;;13.90;99.90;;;;;;5112062;28;20497;-65
2022/03/29 12:15:22;;;;;;;29.25;12.27;;;13.80;99.90;;;;;;5112041;28;20048;-65
2022/03/29 12:20:43;;;;;;;20.23;11.07;;;14.00;99.90;;;;;;5110939;28;20405;-65
2022/03/29 12:23:23;;;;;;;29.70;12.00;;;13.80;99.90;;;;;;5110696;28;20051;-65
2022/03/29 12:25:49;;;;;;;23.77;11.23;;;13.80;99.90;;;;;;5112300;28;20043;-65
2022/03/29 12:28:19;;;;;;;26.25;12.40;;;13.50;99.90;;;;;;5110488;28;20054;-65
2022/03/29 12:30:45;;;;;;;20.58;10.52;;;13.30;99.90;;;;;;5111772;28;20506;-65
2022/03/29 12:33:11;;;;;;;24.10;12.25;;;13.40;99.90;;;;;;5113942;28;20115;-65
2022/03/29 12:35:36;;;;;;;24.13;11.02;;;13.30;99.90;;;;;;5112084;28;20118;-64
2022/03/29 12:38:06;;;;;;;25.95;11.27;;;13.30;99.90;;;;;;5093123;28;20036;-65
2022/03/29 12:40:32;;;;;;;21.52;9.90;;;13.40;99.90;;;;;;5093661;28;20119;-65
2022/03/29 12:43:03;;;;;;;26.13;11.10;;;13.40;99.90;;;;;;5096382;28;20072;-65
2022/03/29 12:45:29;;;;;;;25.77;11.23;;;13.50;99.90;;;;;;5102780;28;20408;-65
2022/03/29 12:47:56;;;;;;;28.00;11.52;;;13.40;99.90;;;;;;5093061;28;20533;-63
2022/03/29 12:50:22;;;;;;;25.52;11.15;;;13.30;99.90;;;;;;5093806;28;20048;-64
2022/03/29 12:52:47;;;;;;;28.77;12.13;;;13.10;99.90;;;;;;5075775;28;20134;-64
2022/03/29 12:55:16;;;;;;;19.42;10.43;;;13.20;99.90;;;;;;5096424;28;20484;-64
2022/03/29 12:57:43;;;;;;;24.42;9.77;;;13.30;99.90;;;;;;5091885;28;20371;-64
2022/03/29 13:00:15;;;;;;;27.83;11.32;;;13.30;99.90;;;;;;5101733;28;20061;-64
2022/03/29 13:02:44;;;;;;;21.95;10.32;;;13.40;99.90;;;;;;5089638;28;20089;-65
2022/03/29 13:05:11;;;;;;;25.20;11.05;;;13.60;99.90;;;;;;5098092;28;20035;-64